Time;durP1;ratioP1;P1;durP2;ratioP2;P2;SDS_P1;SDS_P2;PMS_P1;PMS_P2;Temp;Humidity;BMP_temperature;BMP_pressure;BME280_temperature;BME280_humidity;BME280_pressure;Samples;Min_cycle;Max_cycle;Signal;HPM_P1;HPM_P2
2022/08/30 00:01:01;;;;;;;;;;;21.00;53.00;;;18.74;56.71;101632.31;12255673;19;19974;-87
2022/08/30 00:05:03;;;;;;;;;;;21.00;53.10;;;19.21;57.03;101720.56;12254234;19;20904;-87
2022/08/30 00:09:05;;;;;;;;;;;21.00;53.10;;;19.15;56.81;101718.41;12251612;19;19907;-84
2022/08/30 00:13:07;;;;;;;;;;;21.00;53.10;;;19.13;56.71;101717.66;12253050;19;19923;-85
2022/08/30 00:17:09;;;;;;;;;;;21.20;53.10;;;19.10;56.66;101731.13;12251936;19;19929;-84
2022/08/30 00:21:11;;;;;;;;;;;21.10;53.00;;;18.97;56.75;101718.81;12254027;19;19914;-84
2022/08/30 00:25:13;;;;;;;;;;;20.90;53.00;;;18.87;56.98;101714.31;12251128;19;19935;-87
2022/08/30 00:29:14;;;;;;;;;;;20.80;53.00;;;18.92;56.96;101726.25;12248066;19;19903;-87
2022/08/30 00:33:16;;;;;;;;;;;20.70;53.10;;;18.95;57.03;101731.31;12250115;19;19915;-87
2022/08/30 00:37:18;;;;;;;;;;;20.70;53.20;;;18.64;57.10;101685.09;12247195;19;19922;-85
2022/08/30 00:41:21;;;;;;;;;;;20.70;53.20;;;18.91;56.99;101731.66;12249384;19;19922;-84
2022/08/30 00:45:27;;;;;;;;;;;20.70;53.20;;;18.88;57.18;101735.38;12251876;19;20274;-84
2022/08/30 00:49:29;;;;;;;;;;;20.70;53.20;;;18.82;56.99;101730.53;12250763;19;20370;-88
2022/08/30 00:53:35;;;;;;;;;;;20.60;53.20;;;18.83;57.19;101737.53;12250285;19;20278;-88
2022/08/30 00:57:38;;;;;;;;;;;20.60;53.20;;;18.71;57.16;101738.38;12249437;19;19929;-85
2022/08/30 01:01:40;;;;;;;;;;;20.50;53.10;;;18.70;57.06;101742.84;12250909;19;19919;-84
2022/08/30 01:05:41;;;;;;;;;;;20.50;53.10;;;18.51;56.97;101716.03;12252345;19;19919;-85
2022/08/30 01:09:43;;;;;;;;;;;20.50;53.20;;;18.61;57.04;101738.22;12250890;19;19922;-87
2022/08/30 01:13:46;;;;;;;;;;;20.70;53.30;;;18.63;57.06;101751.34;12250347;19;19921;-87
2022/08/30 01:17:47;;;;;;;;;;;20.40;53.10;;;18.62;57.13;101755.78;12248227;19;19919;-87
2022/08/30 01:21:54;;;;;;;;;;;20.50;53.20;;;18.48;57.04;101735.63;12248623;19;20253;-87
2022/08/30 01:25:55;;;;;;;;;;;20.50;53.30;;;18.38;57.25;101717.88;12245061;19;20246;-87
2022/08/30 01:29:57;;;;;;;;;;;20.30;53.20;;;18.49;57.21;101736.47;12249052;19;19950;-87
2022/08/30 01:34:00;;;;;;;;;;;20.30;53.20;;;18.43;57.21;101735.09;12247958;19;20297;-87
2022/08/30 01:38:01;;;;;;;;;;;20.30;53.20;;;18.42;57.32;101743.16;12247898;19;19926;-85
2022/08/30 01:42:03;;;;;;;;;;;20.30;53.20;;;18.39;57.02;101743.38;12248494;19;20255;-85
2022/08/30 01:46:05;;;;;;;;;;;20.20;53.00;;;18.28;57.37;101741.50;12251882;19;19931;-85
2022/08/30 01:50:07;;;;;;;;;;;20.20;53.10;;;18.12;57.00;101720.63;12250449;19;20238;-84
2022/08/30 01:54:10;;;;;;;;;;;20.10;53.00;;;18.24;57.01;101745.31;12249811;19;19928;-85
2022/08/30 01:58:12;;;;;;;;;;;20.10;53.10;;;18.25;57.12;101747.00;12249223;19;19923;-85
2022/08/30 02:02:15;;;;;;;;;;;20.10;53.10;;;18.03;57.09;101716.81;12247133;19;19918;-84
2022/08/30 02:06:18;;;;;;;;;;;20.00;53.10;;;18.19;57.15;101748.28;12251478;19;20713;-87
2022/08/30 02:10:20;;;;;;;;;;;20.00;53.10;;;17.90;57.11;101694.84;12260573;19;19940;-88
2022/08/30 02:14:21;;;;;;;;;;;20.20;53.30;;;17.69;57.15;101671.59;12259550;19;20270;-87
2022/08/30 02:18:24;;;;;;;;;;;20.00;53.20;;;17.78;57.25;101672.75;12254974;19;19918;-87
2022/08/30 02:22:25;;;;;;;;;;;20.00;53.20;;;17.67;57.19;101655.00;12257218;19;19923;-87
2022/08/30 02:26:27;;;;;;;;;;;20.10;53.30;;;18.03;57.53;101722.09;12257473;19;19922;-87
2022/08/30 02:30:28;;;;;;;;;;;20.20;53.40;;;17.95;57.43;101719.16;12257577;19;19978;-86
2022/08/30 02:34:30;;;;;;;;;;;20.00;53.40;;;17.65;57.20;101663.97;12257906;19;19936;-87
2022/08/30 02:38:31;;;;;;;;;;;20.20;53.40;;;17.92;57.23;101727.28;12254041;19;19939;-87
2022/08/30 02:42:33;;;;;;;;;;;20.20;53.40;;;17.82;57.34;101713.91;12255502;19;20262;-85
2022/08/30 02:46:35;;;;;;;;;;;19.80;53.20;;;17.85;57.26;101718.13;12257352;19;19919;-86
2022/08/30 02:50:44;;;;;;;;;;;19.80;53.20;;;17.62;57.42;101688.81;12259613;19;19949;-84
2022/08/30 02:55:03;;;;;;;;;;;19.80;53.10;;;17.53;57.33;101684.19;12257939;19;20265;-88
2022/08/30 02:59:07;;;;;;;;;;;19.70;53.10;;;17.80;57.21;101736.09;12251404;19;19930;-87
2022/08/30 03:03:09;;;;;;;;;;;19.80;53.30;;;17.77;57.50;101734.47;12253257;19;19919;-86
2022/08/30 03:07:11;;;;;;;;;;;20.00;53.40;;;17.75;57.47;101730.25;12252859;19;19919;-87
2022/08/30 03:11:13;;;;;;;;;;;19.60;53.30;;;17.53;57.41;101691.28;12253696;19;20272;-86
2022/08/30 03:15:15;;;;;;;;;;;19.60;53.30;;;17.73;57.39;101721.56;12254121;19;20266;-87
2022/08/30 03:19:18;;;;;;;;;;;19.60;53.30;;;17.73;57.46;101726.84;12251468;19;19926;-85
2022/08/30 03:23:19;;;;;;;;;;;19.50;53.30;;;17.12;57.35;101635.06;12252010;19;19910;-84
2022/08/30 03:27:21;;;;;;;;;;;19.60;53.30;;;17.69;57.54;101737.66;12254122;19;19923;-85
2022/08/30 03:31:22;;;;;;;;;;;19.60;53.30;;;17.66;57.50;101735.22;12255680;19;19922;-84
2022/08/30 03:35:24;;;;;;;;;;;19.80;53.40;;;17.13;57.50;101657.88;12254564;19;19974;-84
2022/08/30 03:39:26;;;;;;;;;;;19.50;53.30;;;17.68;57.52;101749.13;12255359;19;19922;-84
2022/08/30 03:43:28;;;;;;;;;;;19.50;53.30;;;17.60;57.46;101740.06;12248726;19;20261;-84
2022/08/30 03:47:29;;;;;;;;;;;19.50;53.30;;;17.54;57.54;101741.31;12249773;19;20246;-84
2022/08/30 03:51:32;;;;;;;;;;;19.60;53.30;;;17.52;57.30;101745.84;12252234;19;19919;-84
2022/08/30 03:55:33;;;;;;;;;;;19.70;53.30;;;17.43;57.49;101743.84;12250378;19;19946;-84
2022/08/30 03:59:35;;;;;;;;;;;19.30;53.20;;;17.27;57.39;101732.66;12250340;19;19922;-84
2022/08/30 04:03:42;;;;;;;;;;;19.30;53.20;;;17.03;57.67;101699.84;12247165;19;19907;-87
2022/08/30 04:08:07;;;;;;;;;;;19.30;53.20;;;17.29;57.50;101728.13;12244068;19;19949;-87
2022/08/30 04:12:08;;;;;;;;;;;19.30;53.30;;;16.89;57.40;101691.19;12251200;19;19915;-87
2022/08/30 04:16:10;;;;;;;;;;;19.30;53.30;;;17.09;57.41;101726.78;12250322;19;19922;-87
2022/08/30 04:20:11;;;;;;;;;;;19.20;53.30;;;16.87;57.43;101698.34;12250652;19;19910;-87
2022/08/30 04:24:13;;;;;;;;;;;19.20;53.20;;;16.75;57.55;101695.53;12247258;19;19919;-87
2022/08/30 04:28:14;;;;;;;;;;;19.10;53.10;;;17.11;57.71;101760.06;12246262;19;20378;-87
2022/08/30 04:32:16;;;;;;;;;;;19.40;53.20;;;16.86;57.41;101733.59;12251289;19;19936;-86
2022/08/30 04:36:17;;;;;;;;;;;19.10;53.10;;;16.94;57.63;101761.16;12241928;19;19929;-87
2022/08/30 04:40:19;;;;;;;;;;;19.00;53.10;;;16.68;57.69;101714.50;12248876;19;19923;-87
2022/08/30 04:44:20;;;;;;;;;;;19.00;53.20;;;16.94;57.71;101761.16;12246396;19;19922;-86
2022/08/30 04:48:22;;;;;;;;;;;19.20;53.40;;;16.90;57.62;101754.38;12244455;19;19944;-86
2022/08/30 04:52:24;;;;;;;;;;;19.00;53.40;;;16.73;57.94;101726.44;12245940;19;19915;-87
2022/08/30 04:56:25;;;;;;;;;;;19.00;53.50;;;17.02;57.88;101771.22;12243665;19;19914;-88
2022/08/30 05:00:27;;;;;;;;;;;19.00;53.60;;;17.10;57.96;101776.84;12242655;19;19926;-87
2022/08/30 05:04:29;;;;;;;;;;;19.30;53.80;;;17.15;57.81;101780.03;12243562;19;20397;-88
2022/08/30 05:08:31;;;;;;;;;;;19.00;53.70;;;17.20;57.94;101785.84;12241632;19;19919;-86
2022/08/30 05:12:32;;;;;;;;;;;19.00;53.70;;;17.15;57.88;101774.75;12242304;19;19943;-86
2022/08/30 05:16:34;;;;;;;;;;;19.10;53.80;;;17.25;57.85;101790.81;12240636;19;19922;-84
2022/08/30 05:20:36;;;;;;;;;;;19.30;53.80;;;17.19;57.87;101778.03;12244914;19;19915;-84
2022/08/30 05:24:37;;;;;;;;;;;19.30;53.80;;;16.88;57.92;101731.72;12244525;19;19922;-84
2022/08/30 05:28:39;;;;;;;;;;;19.10;53.80;;;17.16;58.02;101773.78;12242644;19;19911;-84
2022/08/30 05:32:40;;;;;;;;;;;19.10;53.80;;;17.04;57.93;101750.88;12244461;19;19948;-84
2022/08/30 05:36:42;;;;;;;;;;;19.10;53.90;;;17.05;57.87;101754.34;12241801;19;19935;-84
2022/08/30 05:40:43;;;;;;;;;;;19.20;54.00;;;17.44;58.04;101815.06;12244056;19;19919;-85
2022/08/30 05:44:46;;;;;;;;;;;19.20;54.10;;;16.88;57.89;101714.09;12256095;19;19915;-84
2022/08/30 05:48:48;;;;;;;;;;;19.20;54.10;;;17.42;58.06;101800.28;12251118;19;19922;-84
2022/08/30 05:52:50;;;;;;;;;;;19.40;54.20;;;17.42;57.89;101795.00;12255468;19;20047;-84
2022/08/30 05:56:52;;;;;;;;;;;19.50;54.30;;;17.51;57.90;101810.22;12255319;19;19914;-84
2022/08/30 06:00:53;;;;;;;;;;;19.30;54.20;;;17.52;58.13;101796.03;12255666;19;19919;-85
2022/08/30 06:04:55;;;;;;;;;;;19.70;54.50;;;17.56;58.12;101807.25;12255660;19;20014;-84
2022/08/30 06:08:57;;;;;;;;;;;19.70;54.60;;;17.69;58.06;101811.63;12251873;19;19980;-85
2022/08/30 06:12:58;;;;;;;;;;;19.40;54.50;;;17.72;58.08;101807.06;12256817;19;19911;-85
2022/08/30 06:17:00;;;;;;;;;;;19.50;54.60;;;17.83;57.98;101817.78;12253778;19;19915;-85
2022/08/30 06:21:02;;;;;;;;;;;19.70;54.80;;;17.60;58.06;101767.31;12255040;19;19934;-85
2022/08/30 06:25:04;;;;;;;;;;;19.60;55.00;;;17.77;58.08;101792.59;12254991;19;19944;-85
2022/08/30 06:29:06;;;;;;;;;;;19.70;55.00;;;18.07;58.27;101818.75;12252034;19;19910;-85
2022/08/30 06:33:08;;;;;;;;;;;19.80;55.20;;;18.02;58.35;101807.63;12253919;19;19982;-85
2022/08/30 06:37:10;;;;;;;;;;;19.80;55.30;;;18.00;58.41;101790.19;12244933;19;20326;-85
2022/08/30 06:41:15;;;;;;;;;;;19.90;55.40;;;18.18;58.31;101814.50;12246456;19;20288;-85
2022/08/30 06:45:17;;;;;;;;;;;20.30;55.60;;;18.17;58.16;101792.50;12250535;19;19944;-84
2022/08/30 06:49:19;;;;;;;;;;;20.00;55.40;;;18.14;58.53;101779.47;12245110;19;19934;-84
2022/08/30 06:53:21;;;;;;;;;;;20.10;55.50;;;18.20;58.30;101778.22;12249285;19;19923;-85
2022/08/30 06:57:23;;;;;;;;;;;20.20;55.50;;;18.27;58.55;101771.53;12246669;19;19911;-86
2022/08/30 07:01:26;;;;;;;;;;;20.30;55.50;;;18.70;58.46;101827.50;12246122;19;19914;-86
2022/08/30 07:05:28;;;;;;;;;;;20.40;55.80;;;18.85;58.45;101840.63;12248456;19;20580;-84
2022/08/30 07:09:29;;;;;;;;;;;20.50;55.60;;;18.48;58.37;101766.53;12246758;19;19911;-84
2022/08/30 07:13:31;;;;;;;;;;;20.50;55.70;;;18.51;58.56;101764.50;12245899;19;20285;-87
2022/08/30 07:21:53;;;;;;;;;;;20.70;55.50;;;19.09;58.68;101845.94;12244729;19;19932;-87
2022/08/30 07:25:55;;;;;;;;;;;20.70;55.70;;;19.15;58.62;101838.41;12246073;19;19930;-87
2022/08/30 07:29:57;;;;;;;;;;;21.00;55.70;;;19.22;58.90;101838.78;12240409;19;19926;-87
2022/08/30 07:33:59;;;;;;;;;;;20.90;55.90;;;19.20;58.56;101822.19;12245949;19;19915;-88
2022/08/30 07:38:00;;;;;;;;;;;20.90;56.20;;;19.17;58.41;101791.47;12243834;19;19926;-87
2022/08/30 07:42:02;;;;;;;;;;;21.10;57.00;;;19.13;58.50;101775.91;12244152;19;20333;-87
2022/08/30 07:46:05;;;;;;;;;;;21.20;56.40;;;19.50;59.07;101823.50;12245113;19;19918;-88
2022/08/30 07:50:07;;;;;;;;;;;21.30;56.80;;;19.74;58.93;101856.13;12244464;19;19935;-88
2022/08/30 07:54:08;;;;;;;;;;;21.40;56.30;;;19.83;58.70;101854.56;12243816;19;19935;-87
2022/08/30 07:58:10;;;;;;;;;;;21.50;56.10;;;19.69;59.08;101815.88;12243666;19;19944;-88
2022/08/30 08:02:12;;;;;;;;;;;21.90;56.30;;;19.95;58.99;101839.50;12244387;19;19918;-87
2022/08/30 08:06:15;;;;;;;;;;;21.70;56.00;;;20.00;58.70;101846.16;12243835;19;20334;-87
2022/08/30 08:10:17;;;;;;;;;;;21.80;57.00;;;19.94;58.82;101814.81;12243476;19;19930;-87
2022/08/30 08:14:20;;;;;;;;;;;21.90;56.30;;;19.99;58.71;101804.69;12243305;19;19944;-87
2022/08/30 08:18:22;;;;;;;;;;;22.20;55.90;;;20.05;58.86;101790.09;12243231;19;19923;-87
2022/08/30 08:22:23;;;;;;;;;;;22.30;56.00;;;20.22;59.02;101802.03;12238376;19;19915;-87
2022/08/30 08:26:24;;;;;;;;;;;22.20;55.80;;;20.74;58.91;101866.94;12242195;19;19930;-87
2022/08/30 08:30:26;;;;;;;;;;;22.30;56.00;;;20.92;58.69;101875.22;12242982;19;19910;-87
2022/08/30 08:34:27;;;;;;;;;;;22.40;56.00;;;21.00;58.79;101860.34;12241673;19;19918;-87
2022/08/30 08:38:29;;;;;;;;;;;22.60;55.80;;;21.07;58.94;101862.53;12239798;19;20256;-88
2022/08/30 08:42:55;;;;;;;;;;;22.70;55.80;;;21.28;58.99;101875.84;12238641;19;19914;-89
2022/08/30 08:47:10;;;;;;;;;;;22.80;55.80;;;21.38;58.92;101887.44;12240961;19;19939;-86
2022/08/30 08:55:41;;;;;;;;;;;23.00;55.60;;;21.48;58.66;101877.72;12237437;19;19931;-86
2022/08/30 08:59:44;;;;;;;;;;;23.10;55.50;;;21.30;58.74;101840.19;12237367;19;19915;-87
2022/08/30 09:03:45;;;;;;;;;;;23.50;55.70;;;21.54;58.86;101877.22;12236864;19;19935;-87
2022/08/30 09:07:51;;;;;;;;;;;23.20;55.60;;;21.63;58.56;101892.41;12237526;19;19911;-87
2022/08/30 09:11:52;;;;;;;;;;;23.30;55.30;;;21.59;58.29;101883.00;12240234;19;19922;-86
2022/08/30 09:15:55;;;;;;;;;;;23.30;55.10;;;21.63;58.49;101872.97;12238312;19;19960;-87
2022/08/30 09:19:58;;;;;;;;;;;23.40;55.20;;;21.67;58.39;101858.44;12241629;19;19982;-87
2022/08/30 09:24:03;;;;;;;;;;;23.50;55.20;;;21.43;58.65;101814.31;12235225;19;19948;-87
2022/08/30 09:28:14;;;;;;;;;;;23.50;55.20;;;21.86;58.45;101876.31;12239488;19;20341;-87
2022/08/30 09:32:24;;;;;;;;;;;23.50;55.00;;;21.47;58.45;101808.75;12239436;19;19952;-86
2022/08/30 09:36:30;;;;;;;;;;;23.60;54.90;;;21.87;58.36;101875.34;12240067;19;19922;-87
2022/08/30 09:40:41;;;;;;;;;;;23.60;54.60;;;21.98;58.49;101893.91;12238090;19;19915;-87
2022/08/30 09:44:43;;;;;;;;;;;23.60;54.70;;;22.04;58.55;101889.88;12237203;19;19982;-88
2022/08/30 09:48:44;;;;;;;;;;;23.70;54.80;;;22.12;58.39;101886.56;12235015;19;19914;-87
2022/08/30 09:53:10;;;;;;;;;;;23.70;54.70;;;22.10;58.30;101871.56;12235747;19;20609;-87
2022/08/30 09:57:26;;;;;;;;;;;23.80;54.70;;;22.25;58.44;101881.88;12237217;19;19930;-87
2022/08/30 10:01:35;;;;;;;;;;;23.90;54.70;;;22.35;58.28;101881.94;12238641;19;19935;-87
2022/08/30 10:06:04;;;;;;;;;;;24.00;54.70;;;22.43;58.24;101888.28;12236610;19;19919;-87
2022/08/30 10:10:14;;;;;;;;;;;24.00;54.60;;;22.31;57.80;101881.38;12242426;19;20243;-88
2022/08/30 10:14:41;;;;;;;;;;;24.00;54.50;;;22.20;57.75;101874.31;12240584;19;19911;-86
2022/08/30 10:19:04;;;;;;;;;;;24.00;54.20;;;22.27;58.22;101885.28;12238578;19;20334;-87
2022/08/30 10:23:29;;;;;;;;;;;24.00;54.30;;;22.23;58.17;101884.69;12235666;19;19997;-88
2022/08/30 10:27:57;;;;;;;;;;;24.00;54.30;;;22.39;58.30;101889.53;12242762;19;20517;-87
2022/08/30 10:32:03;;;;;;;;;;;24.00;54.40;;;22.51;58.28;101901.75;12254995;19;19914;-88
2022/08/30 10:36:09;;;;;;;;;;;24.10;54.50;;;22.62;58.33;101884.00;12254861;19;19961;-87
2022/08/30 10:45:13;;;;;;;;;;;24.30;54.10;;;22.79;57.88;101875.41;12248533;19;20310;-88
2022/08/30 10:49:18;;;;;;;;;;;24.30;54.20;;;22.77;57.84;101849.88;12249262;19;20263;-88
2022/08/30 10:53:29;;;;;;;;;;;24.40;53.50;;;23.02;57.74;101875.19;12249632;19;20335;-88
2022/08/30 10:57:30;;;;;;;;;;;24.50;53.50;;;22.54;57.60;101781.69;12247844;19;19918;-87
2022/08/30 11:01:58;;;;;;;;;;;24.70;53.80;;;22.91;57.66;101823.66;12249545;19;19918;-87
2022/08/30 11:06:09;;;;;;;;;;;24.70;53.90;;;23.37;57.62;101870.16;12244591;19;19936;-87
2022/08/30 11:10:24;;;;;;;;;;;24.80;53.90;;;23.35;57.70;101853.44;12251391;19;19926;-87
2022/08/30 11:14:27;;;;;;;;;;;25.20;51.50;;;23.47;56.97;101869.31;12250083;19;19934;-87
2022/08/30 11:18:41;;;;;;;;;;;25.10;54.00;;;23.47;57.24;101866.66;12248807;19;19911;-88
2022/08/30 11:23:02;;;;;;;;;;;25.10;52.30;;;23.11;57.37;101797.91;12243064;19;19990;-87
2022/08/30 11:27:04;;;;;;;;;;;25.10;52.90;;;23.61;57.32;101877.72;12244842;19;19923;-87
2022/08/30 11:31:35;;;;;;;;;;;25.20;52.90;;;23.47;57.31;101840.84;12247755;19;19918;-87
2022/08/30 11:35:57;;;;;;;;;;;25.20;52.90;;;23.76;57.29;101863.97;12243236;19;19962;-87
2022/08/30 11:40:00;;;;;;;;;;;25.30;53.00;;;23.78;56.82;101848.66;12243495;19;19914;-87
2022/08/30 11:44:30;;;;;;;;;;;25.40;53.20;;;23.82;57.00;101842.06;12240754;19;19919;-87
2022/08/30 11:48:59;;;;;;;;;;;25.40;53.00;;;23.88;56.90;101838.00;12243725;19;19927;-87
2022/08/30 11:53:19;;;;;;;;;;;25.50;52.60;;;24.01;56.63;101838.50;12243396;19;19929;-87
2022/08/30 11:57:30;;;;;;;;;;;25.60;52.60;;;24.08;56.56;101842.25;12243974;19;19958;-87
2022/08/30 12:01:37;;;;;;;;;;;25.60;52.30;;;24.07;56.56;101820.06;12245043;19;19939;-87
2022/08/30 12:05:50;;;;;;;;;;;25.70;52.00;;;24.21;56.69;101823.25;12242891;19;20351;-87
2022/08/30 12:09:51;;;;;;;;;;;25.70;52.40;;;24.28;56.40;101838.53;12240714;19;19919;-87
2022/08/30 12:13:54;;;;;;;;;;;25.80;52.90;;;24.23;56.31;101813.28;12242378;19;19911;-87
2022/08/30 12:22:17;;;;;;;;;;;26.10;52.50;;;24.29;56.01;101804.66;12242195;19;19925;-87
2022/08/30 12:26:31;;;;;;;;;;;26.00;52.00;;;24.40;56.21;101806.31;12245064;19;19919;-87
2022/08/30 12:30:37;;;;;;;;;;;26.00;52.00;;;24.33;55.96;101789.19;12243163;19;19929;-87
2022/08/30 12:34:42;;;;;;;;;;;26.10;52.20;;;24.58;56.22;101822.41;12241564;19;19927;-86
2022/08/30 12:38:44;;;;;;;;;;;26.10;51.90;;;24.42;56.34;101785.63;12238212;19;19915;-87
2022/08/30 12:42:57;;;;;;;;;;;26.20;52.00;;;24.61;56.02;101817.59;12240000;19;19919;-87
2022/08/30 12:47:02;;;;;;;;;;;26.20;51.30;;;24.46;55.62;101787.03;12242579;19;19940;-87
2022/08/30 12:51:04;;;;;;;;;;;26.20;51.60;;;24.46;56.31;101781.69;12241626;19;20023;-87
2022/08/30 12:55:19;;;;;;;;;;;26.20;52.00;;;24.58;55.98;101791.19;12242061;19;19975;-86
2022/08/30 12:59:49;;;;;;;;;;;26.20;51.60;;;24.56;55.72;101789.66;12238019;19;19982;-87
2022/08/30 13:04:12;;;;;;;;;;;26.20;51.50;;;24.63;55.62;101799.59;12237735;19;19932;-87
2022/08/30 13:08:19;;;;;;;;;;;26.20;51.30;;;24.69;55.83;101788.31;12241270;19;19955;-86
2022/08/30 13:12:26;;;;;;;;;;;26.20;51.50;;;24.71;56.06;101778.31;12240627;19;19919;-87
2022/08/30 13:16:35;;;;;;;;;;;26.30;46.50;;;24.76;55.34;101777.00;12239175;19;19930;-86
2022/08/30 13:20:38;;;;;;;;;;;26.30;50.90;;;24.39;55.45;101714.69;12240464;19;19943;-86
2022/08/30 13:24:40;;;;;;;;;;;26.40;49.80;;;24.68;55.62;101759.06;12239244;19;19915;-86
2022/08/30 13:28:51;;;;;;;;;;;26.40;50.30;;;24.80;55.48;101773.03;12237183;19;19919;-88
2022/08/30 13:32:54;;;;;;;;;;;26.40;50.50;;;24.81;55.13;101772.88;12238479;19;20269;-89
2022/08/30 13:36:57;;;;;;;;;;;26.60;51.10;;;24.72;55.17;101755.09;12241019;19;19915;-87
2022/08/30 13:40:58;;;;;;;;;;;26.50;49.40;;;24.73;54.82;101749.63;12240972;19;19919;-86
2022/08/30 13:44:59;;;;;;;;;;;26.50;49.50;;;24.71;55.11;101743.59;12243906;19;20353;-87
2022/08/30 13:49:04;;;;;;;;;;;26.50;48.60;;;24.91;54.88;101759.44;12239470;19;19914;-86
2022/08/30 13:53:07;;;;;;;;;;;26.50;50.50;;;24.99;55.37;101761.38;12242014;19;20249;-85
2022/08/30 13:57:09;;;;;;;;;;;26.50;50.40;;;24.97;54.79;101740.13;12239607;19;19994;-86
2022/08/30 14:01:10;;;;;;;;;;;26.60;50.20;;;24.93;55.04;101722.72;12244575;19;19986;-87
2022/08/30 14:05:12;;;;;;;;;;;26.70;50.50;;;24.87;54.73;101705.50;12254382;19;19923;-86
2022/08/30 14:09:13;;;;;;;;;;;26.70;50.90;;;25.26;54.88;101752.41;12247949;19;20395;-86
2022/08/30 14:13:15;;;;;;;;;;;26.80;50.80;;;25.30;54.74;101753.78;12253608;19;19918;-87
2022/08/30 14:17:16;;;;;;;;;;;26.80;50.30;;;25.23;54.39;101745.56;12251404;19;19919;-87
2022/08/30 14:21:18;;;;;;;;;;;26.90;50.50;;;25.04;54.14;101721.66;12253987;19;19907;-87
2022/08/30 14:25:19;;;;;;;;;;;26.90;51.10;;;25.10;54.31;101740.56;12254040;19;20296;-87
2022/08/30 14:29:24;;;;;;;;;;;26.90;51.20;;;25.07;54.41;101748.91;12249523;19;20573;-87
2022/08/30 14:33:26;;;;;;;;;;;26.80;51.20;;;24.93;53.90;101738.78;12253732;19;20008;-86
2022/08/30 14:37:27;;;;;;;;;;;26.70;51.40;;;24.96;54.12;101757.16;12250241;19;20367;-85
2022/08/30 14:41:29;;;;;;;;;;;26.70;51.40;;;24.82;54.38;101755.03;12255983;19;19926;-86
2022/08/30 14:45:30;;;;;;;;;;;26.70;50.00;;;24.38;54.25;101710.31;12254541;19;19926;-86
2022/08/30 14:49:32;;;;;;;;;;;26.60;50.90;;;24.31;54.40;101722.59;12254846;19;20239;-86
2022/08/30 14:53:33;;;;;;;;;;;26.40;51.00;;;24.15;53.90;101714.41;12254432;19;20323;-86
2022/08/30 14:57:36;;;;;;;;;;;26.40;51.40;;;24.02;53.94;101701.41;12252423;19;19962;-87
2022/08/30 15:01:38;;;;;;;;;;;26.20;51.00;;;23.98;54.29;101716.91;12252717;19;19922;-86
2022/08/30 15:05:40;;;;;;;;;;;26.20;50.90;;;24.03;54.36;101737.78;12252498;19;20268;-86
2022/08/30 15:09:42;;;;;;;;;;;26.00;51.00;;;23.87;54.11;101713.56;12245241;19;19915;-87
2022/08/30 15:13:44;;;;;;;;;;;26.00;51.10;;;24.11;54.05;101777.06;12253307;19;19982;-85
2022/08/30 15:17:49;;;;;;;;;;;25.90;50.00;;;24.04;54.16;101775.00;12249781;19;19915;-86
2022/08/30 15:21:51;;;;;;;;;;;25.80;50.70;;;23.66;54.13;101735.94;12249148;19;19914;-87
2022/08/30 15:25:53;;;;;;;;;;;25.80;49.80;;;23.94;54.10;101776.03;12251552;19;20343;-86
2022/08/30 15:29:54;;;;;;;;;;;25.60;50.70;;;23.85;54.26;101764.41;12253583;19;20334;-85
2022/08/30 15:33:57;;;;;;;;;;;25.60;51.00;;;23.89;54.13;101762.28;12252620;19;19940;-87
2022/08/30 15:38:02;;;;;;;;;;;25.60;51.00;;;23.88;54.00;101763.28;12243685;19;19922;-88
2022/08/30 15:42:04;;;;;;;;;;;25.60;51.00;;;23.60;54.41;101724.03;12243324;19;20233;-87
2022/08/30 15:46:16;;;;;;;;;;;25.60;50.90;;;23.94;54.17;101782.19;12245734;19;20329;-87
2022/08/30 15:50:18;;;;;;;;;;;25.60;51.10;;;23.16;54.08;101653.56;12248227;19;20437;-88
2022/08/30 15:54:21;;;;;;;;;;;25.50;50.30;;;23.32;53.90;101692.97;12246892;19;19971;-87
2022/08/30 15:58:23;;;;;;;;;;;25.40;50.30;;;23.24;54.22;101683.00;12244333;19;19915;-87
2022/08/30 16:02:25;;;;;;;;;;;25.40;50.90;;;23.40;53.93;101696.56;12246708;19;19986;-87
2022/08/30 16:06:31;;;;;;;;;;;25.40;50.80;;;23.64;53.90;101727.25;12247980;19;19950;-87
2022/08/30 16:10:33;;;;;;;;;;;25.40;50.80;;;23.29;54.07;101667.44;12248998;19;20274;-87
2022/08/30 16:14:35;;;;;;;;;;;25.50;50.10;;;23.48;54.31;101703.03;12248318;19;19919;-87
2022/08/30 16:18:37;;;;;;;;;;;25.40;50.70;;;23.25;54.08;101660.72;12245515;19;19978;-88
2022/08/30 16:22:39;;;;;;;;;;;25.50;51.00;;;23.16;54.04;101634.94;12246193;19;19946;-86
2022/08/30 16:26:42;;;;;;;;;;;25.40;50.80;;;23.53;54.01;101698.09;12249986;19;20297;-87
2022/08/30 16:30:43;;;;;;;;;;;25.80;51.20;;;23.61;53.89;101714.22;12252974;19;19923;-87
2022/08/30 16:34:45;;;;;;;;;;;25.50;51.10;;;23.66;54.32;101721.78;12251636;19;19919;-87
2022/08/30 16:38:46;;;;;;;;;;;25.40;50.30;;;23.68;54.08;101739.28;12248200;19;19922;-88
2022/08/30 16:42:49;;;;;;;;;;;25.40;50.80;;;23.47;54.28;101694.19;12247693;19;19919;-88
2022/08/30 16:46:50;;;;;;;;;;;25.40;50.90;;;23.66;53.98;101724.44;12248535;19;19953;-88
2022/08/30 16:50:52;;;;;;;;;;;25.60;51.00;;;23.34;53.86;101670.50;12249230;19;20343;-87
2022/08/30 16:54:54;;;;;;;;;;;25.60;51.00;;;23.54;54.04;101715.75;12250722;19;19927;-88
2022/08/30 16:58:57;;;;;;;;;;;25.30;50.80;;;23.31;53.73;101680.63;12247776;19;19911;-88
2022/08/30 17:02:59;;;;;;;;;;;25.30;50.70;;;23.07;54.05;101651.78;12245437;19;19926;-86
2022/08/30 17:07:01;;;;;;;;;;;25.30;50.60;;;23.18;53.85;101680.94;12247197;19;19911;-87
2022/08/30 17:11:02;;;;;;;;;;;25.50;50.80;;;23.38;53.95;101733.19;12249083;19;19923;-86
2022/08/30 17:15:04;;;;;;;;;;;25.20;50.50;;;23.35;54.00;101733.50;12248154;19;19947;-86
2022/08/30 17:19:06;;;;;;;;;;;25.10;50.50;;;23.33;53.86;101743.47;12245764;19;19936;-85
2022/08/30 17:23:08;;;;;;;;;;;25.10;50.50;;;23.16;53.98;101723.69;12248128;19;20250;-85
2022/08/30 17:27:09;;;;;;;;;;;25.00;50.50;;;23.32;53.94;101771.09;12245247;19;19967;-86
2022/08/30 17:31:11;;;;;;;;;;;24.90;50.60;;;22.75;54.09;101680.38;12245106;19;19914;-86
2022/08/30 17:35:12;;;;;;;;;;;24.90;50.60;;;23.29;54.06;101787.38;12247821;19;19918;-87
2022/08/30 17:39:14;;;;;;;;;;;24.90;50.60;;;23.27;54.03;101777.84;12251523;19;19926;-87
2022/08/30 17:43:15;;;;;;;;;;;24.80;50.60;;;23.23;53.95;101776.47;12256611;19;19919;-87
2022/08/30 17:47:17;;;;;;;;;;;24.80;50.60;;;22.84;54.24;101721.31;12256707;19;19915;-87
2022/08/30 17:51:19;;;;;;;;;;;24.80;50.70;;;22.85;53.84;101724.84;12259219;19;20339;-84
2022/08/30 17:55:21;;;;;;;;;;;24.80;50.70;;;22.99;54.14;101753.75;12258220;19;19926;-84
2022/08/30 17:59:23;;;;;;;;;;;24.80;50.70;;;22.89;53.86;101726.22;12254409;19;19910;-84
2022/08/30 18:03:24;;;;;;;;;;;24.80;50.60;;;22.81;54.24;101734.91;12255475;19;19978;-84
2022/08/30 18:07:26;;;;;;;;;;;24.90;50.70;;;22.68;54.01;101721.88;12257734;19;19926;-84
2022/08/30 18:11:27;;;;;;;;;;;24.80;50.60;;;23.10;53.96;101804.22;12258965;19;19919;-84
2022/08/30 18:15:29;;;;;;;;;;;24.70;50.90;;;22.78;54.10;101758.31;12257705;19;19919;-84
2022/08/30 18:19:31;;;;;;;;;;;25.00;50.70;;;22.63;53.87;101749.88;12260166;19;19926;-84
2022/08/30 18:23:32;;;;;;;;;;;24.70;50.60;;;22.93;53.80;101818.22;12253240;19;19918;-84
2022/08/30 18:27:36;;;;;;;;;;;24.70;50.50;;;22.58;54.00;101776.13;12256193;19;19932;-84
2022/08/30 18:31:38;;;;;;;;;;;24.60;50.40;;;22.21;54.05;101724.31;12258790;19;19919;-84
2022/08/30 18:35:41;;;;;;;;;;;24.50;50.50;;;22.71;54.00;101829.94;12255586;19;19921;-84